Atlanta, Georgia
Traffic Map
Current Weather Conditions
Atlanta, Georgia
Broken Clouds
Broken Clouds
74°
Feels Like: 74°
Wind Chill: 74° Ceiling: 18000
Heat Index: 74° Visibility: 10mi
Dew Point: 59° Wind: 8mph
Humidity: 59% Direction: 180° (S)
Pressure: 30.03in Gusts: 0mph
Raw Report DataKATL 271852Z 18007KT 10SM FEW035 SCT100 BKN180 BKN250 23/15 A3003 RMK AO2 RAE05 SLP164 P0000 T02330150
Traffic Incident Summary
Active as of:
Severity:
Category:
InformationThere was an issue retrieving the traffic information for this location. Please try a different location or try again shortly.
Advertisements
Track Severe Weather on mobile